Hauptseite
METAR-TAF:

METAR-TAF

Flughäfen :

Friedrichshafen, Deutschland

Flughafen Friedrichshafen

Breite: 47-40N, Länge: 009-31E, Höhe: 416 m

Beobachtung

Neuester Wetterbericht von vor 26 Minuten, um 06:20 UTC
Wind 2 kt aus unterschiedlichen Richtungen
Temperatur 5°C
Luftfeuchtigkeit 100%
Luftdruck 1016 hPa
Sichtweite: 9000 m
Himmel klar
Nebelschwaden

METAR: EDNY 200620Z VRB02KT 9000 BCFG SKC 05/05 Q1016

Zeit: 08:46 (06:46 UTC)

Prognose

Neuester Wetterbericht von vor 1 Stunde und 46 Minuten, um 05:00 UTC
Gültige Prognose vom 20 um 06 UTC bis 21 um 06 UTC
Wind 4 kt aus Südwest
Sichtweite 10 km oder mehr
keine Wolken unter 1500 m und keine Kumulonimbus oder Gewitterwolken
Zeitweise
vom 20 um 06 UTC bis 20 um 08 UTC
Sichtweite: 1200 m
Durchbrochene Bewölkung in der Höhe von 300 ft
Nebelschwaden

TAF: EDNY 200500Z 2006/2106 23004KT CAVOK TEMPO 2006/2008 1200 BCFG BKN003

Wetterbeobachtungen und Prognosen von mehr als 4000 Flughäfen (METAR und TAF Bericht).

Die verfügbaren Stationen werden durch gelbe und rote Markierungen auf der Karte dargestellt.

Führen Sie die Maus auf sie, um den Namen der Station zu sehen.

Darauf klicken, um die Beobachtung von Wetterbeobachtungen und Prognosen zu sehen.

Um die Karte zu ändern : klicken Sie auf den grünen Tasten mit einem schwarzen Kreuz Zum Vergrößern, auf den grünen Button mit einem Gedankenstrich zu verkleinern, oder auf die grünen Pfeile für benachbarte Karten.


METAR-TAF: